createdAt,value
2017-09-22T00:01:01.732Z,90.66
2017-09-22T00:03:33.561Z,91.67
2017-09-22T00:06:06.947Z,91.71
2017-09-22T00:08:35.572Z,91.51
2017-09-22T00:11:08.333Z,91.68
2017-09-22T00:13:39.935Z,92.18
2017-09-22T00:16:11.808Z,91.74
2017-09-22T00:18:43.618Z,91.39
2017-09-22T00:21:16.460Z,90.31
2017-09-22T00:23:47.866Z,90.29
2017-09-22T00:26:20.904Z,90.52
2017-09-22T00:28:52.244Z,89.88
2017-09-22T00:31:24.167Z,90.10
2017-09-22T00:33:58.139Z,90.64
2017-09-22T00:36:30.767Z,91.73
2017-09-22T00:39:04.017Z,91.36
2017-09-22T00:41:36.614Z,90.93
2017-09-22T00:44:08.230Z,91.35
2017-09-22T00:46:39.841Z,91.45
2017-09-22T00:49:12.312Z,91.05
2017-09-22T00:51:45.183Z,90.52
2017-09-22T00:54:16.850Z,89.88
2017-09-22T00:56:47.231Z,89.56
2017-09-22T00:59:19.596Z,89.43
2017-09-22T01:01:51.476Z,89.39
2017-09-22T01:04:23.667Z,89.70
2017-09-22T01:06:56.905Z,90.27
2017-09-22T01:09:29.214Z,91.13
2017-09-22T01:12:02.075Z,90.85
2017-09-22T01:14:31.062Z,90.41
2017-09-22T01:17:03.507Z,90.40
2017-09-22T01:19:34.843Z,91.65
2017-09-22T01:22:07.811Z,91.93
2017-09-22T01:24:39.433Z,91.79
2017-09-22T01:27:11.493Z,90.79
2017-09-22T01:29:44.766Z,91.15
2017-09-22T01:32:18.682Z,90.48
2017-09-22T01:34:50.398Z,90.20
2017-09-22T01:37:20.991Z,90.09
2017-09-22T01:39:53.485Z,90.04
2017-09-22T01:42:26.099Z,90.85
2017-09-22T01:44:57.746Z,90.38
2017-09-22T01:47:29.117Z,89.33
2017-09-22T01:50:00.949Z,89.40
2017-09-22T01:52:33.295Z,89.03
2017-09-22T01:55:06.106Z,89.68
2017-09-22T01:57:37.357Z,91.10
2017-09-22T02:00:06.915Z,91.94
2017-09-22T02:02:39.353Z,91.36
2017-09-22T02:05:10.679Z,90.71
2017-09-22T02:07:42.476Z,89.97
2017-09-22T02:10:11.895Z,90.04
2017-09-22T02:12:44.129Z,90.34
2017-09-22T02:15:15.866Z,89.99
2017-09-22T02:17:45.341Z,90.78
2017-09-22T02:20:16.899Z,91.30
2017-09-22T02:22:49.458Z,91.30
2017-09-22T02:25:21.141Z,91.37
2017-09-22T02:27:52.681Z,92.19
2017-09-22T02:30:21.446Z,91.68
2017-09-22T02:32:53.350Z,92.31
2017-09-22T02:35:24.916Z,91.37
2017-09-22T02:37:57.256Z,90.93
2017-09-22T02:40:29.199Z,90.26
2017-09-22T02:43:01.659Z,90.15
2017-09-22T02:45:33.332Z,90.72
2017-09-22T02:48:05.114Z,91.04
2017-09-22T02:50:36.694Z,90.51
2017-09-22T02:53:09.139Z,90.86
2017-09-22T02:55:40.636Z,91.44
2017-09-22T02:58:12.796Z,91.00
2017-09-22T03:00:44.536Z,91.04
2017-09-22T03:03:16.930Z,90.32
2017-09-22T03:05:48.510Z,90.21
2017-09-22T03:08:21.733Z,90.56
2017-09-22T03:10:53.684Z,90.45
2017-09-22T03:13:24.780Z,91.13
2017-09-22T03:15:56.228Z,90.38
2017-09-22T03:18:27.916Z,91.08
2017-09-22T03:21:00.476Z,91.13
2017-09-22T03:23:32.968Z,90.64
2017-09-22T03:26:05.569Z,89.54
2017-09-22T03:28:37.550Z,89.07
2017-09-22T03:31:09.204Z,89.50
2017-09-22T03:33:41.271Z,89.27
2017-09-22T03:36:12.824Z,89.61
2017-09-22T03:38:44.357Z,89.94
2017-09-22T03:41:16.963Z,90.10
2017-09-22T03:43:48.236Z,90.51
2017-09-22T03:46:21.686Z,90.10
2017-09-22T03:48:54.046Z,89.68
2017-09-22T03:51:25.595Z,89.51
2017-09-22T03:53:57.105Z,90.33
2017-09-22T03:56:28.996Z,90.52
2017-09-22T03:59:00.998Z,90.72
2017-09-22T04:01:33.577Z,91.31
2017-09-22T04:04:06.765Z,91.41
2017-09-22T04:06:39.204Z,90.99
2017-09-22T04:09:10.820Z,90.71
2017-09-22T04:11:42.250Z,89.80
2017-09-22T04:14:14.951Z,88.85
2017-09-22T04:16:46.973Z,88.48
2017-09-22T04:19:18.756Z,88.60
2017-09-22T04:21:51.153Z,88.35
2017-09-22T04:24:23.530Z,88.46
2017-09-22T04:26:55.361Z,88.83
2017-09-22T04:29:23.862Z,89.04
2017-09-22T04:31:56.263Z,89.26
2017-09-22T04:34:27.365Z,89.22
2017-09-22T04:36:59.171Z,89.07
2017-09-22T04:39:30.701Z,89.62
2017-09-22T04:42:03.091Z,90.94
2017-09-22T04:44:35.220Z,90.72
2017-09-22T04:47:06.356Z,91.23
2017-09-22T04:49:37.755Z,90.14
2017-09-22T04:52:09.789Z,89.08
2017-09-22T04:54:42.545Z,90.71
2017-09-22T04:57:14.362Z,91.64
2017-09-22T04:59:45.959Z,91.74
2017-09-22T05:02:16.864Z,90.84
2017-09-22T05:04:49.134Z,91.45
2017-09-22T05:07:20.774Z,90.59
2017-09-22T05:09:53.263Z,89.88
2017-09-22T05:12:25.479Z,89.89
2017-09-22T05:14:57.452Z,89.22
2017-09-22T05:17:28.748Z,89.38
2017-09-22T05:19:59.142Z,89.07
2017-09-22T05:22:30.616Z,88.98
2017-09-22T05:25:03.917Z,89.72
2017-09-22T05:27:36.407Z,89.19
2017-09-22T05:30:08.233Z,91.72
2017-09-22T05:32:40.890Z,92.88
2017-09-22T05:35:12.956Z,92.16
2017-09-22T05:37:44.554Z,91.32
2017-09-22T05:40:16.788Z,91.30
2017-09-22T05:42:48.184Z,90.77
2017-09-22T05:45:20.719Z,90.50
2017-09-22T05:47:52.255Z,89.87
2017-09-22T05:50:22.994Z,89.71
2017-09-22T05:52:54.509Z,89.50
2017-09-22T05:55:27.827Z,89.27
2017-09-22T05:57:59.385Z,88.82
2017-09-22T06:00:30.845Z,88.98
2017-09-22T06:03:02.743Z,89.46
2017-09-22T06:05:34.729Z,90.68
2017-09-22T06:08:07.886Z,92.26
2017-09-22T06:10:39.236Z,92.84
2017-09-22T06:13:12.409Z,92.17
2017-09-22T06:15:42.684Z,92.82
2017-09-22T06:18:14.297Z,92.98
2017-09-22T06:20:44.662Z,92.13
2017-09-22T06:23:14.985Z,92.28
2017-09-22T06:25:47.633Z,91.83
2017-09-22T06:28:20.508Z,91.01
2017-09-22T06:30:52.084Z,90.44
2017-09-22T06:33:23.897Z,90.23
2017-09-22T06:35:58.083Z,90.78
2017-09-22T06:38:30.068Z,90.46
2017-09-22T06:41:02.526Z,91.72
2017-09-22T06:43:33.950Z,90.85
2017-09-22T06:46:07.171Z,89.37
2017-09-22T06:48:38.744Z,89.98
2017-09-22T06:51:10.231Z,89.29
2017-09-22T06:53:42.206Z,88.87
2017-09-22T06:56:14.720Z,89.44
2017-09-22T06:58:46.092Z,88.81
2017-09-22T07:01:18.351Z,87.94
2017-09-22T07:03:49.470Z,88.05
2017-09-22T07:06:21.808Z,88.23
2017-09-22T07:08:53.062Z,88.16
2017-09-22T07:11:24.463Z,87.82
2017-09-22T07:13:55.878Z,87.74
2017-09-22T07:16:27.586Z,86.89
2017-09-22T07:19:00.185Z,87.62
2017-09-22T07:21:32.879Z,86.92
2017-09-22T07:24:05.299Z,86.27
2017-09-22T07:26:37.603Z,86.15
2017-09-22T07:29:09.409Z,86.03
2017-09-22T07:31:40.053Z,84.96
2017-09-22T07:34:11.969Z,85.07
2017-09-22T07:36:44.446Z,85.92
2017-09-22T07:39:15.962Z,86.59
2017-09-22T07:41:48.117Z,86.67
2017-09-22T07:44:19.776Z,86.52
2017-09-22T07:46:52.100Z,86.69
2017-09-22T07:49:22.987Z,85.33
2017-09-22T07:51:54.548Z,84.88
2017-09-22T07:54:26.405Z,84.11
2017-09-22T07:56:59.193Z,85.04
2017-09-22T07:59:29.371Z,84.01
2017-09-22T08:02:01.874Z,83.56
2017-09-22T08:04:33.471Z,83.56
2017-09-22T08:07:05.667Z,83.84
2017-09-22T08:09:37.307Z,83.95
2017-09-22T08:12:09.268Z,83.84
2017-09-22T08:14:41.187Z,83.61
2017-09-22T08:17:13.153Z,83.34
2017-09-22T08:19:44.503Z,82.84
2017-09-22T08:22:16.167Z,83.51
2017-09-22T08:24:47.675Z,82.79
2017-09-22T08:27:20.471Z,83.76
2017-09-22T08:29:50.857Z,83.09
2017-09-22T08:32:22.548Z,82.87
2017-09-22T08:34:54.335Z,83.62
2017-09-22T08:37:27.519Z,83.83
2017-09-22T08:39:59.834Z,84.40
2017-09-22T08:42:31.835Z,82.43
2017-09-22T08:45:03.750Z,82.32
2017-09-22T08:47:36.169Z,81.74
2017-09-22T08:50:07.820Z,81.49
2017-09-22T08:52:40.323Z,81.32
2017-09-22T08:55:12.874Z,81.15
2017-09-22T08:57:44.960Z,80.39
2017-09-22T09:00:16.801Z,81.53
2017-09-22T09:02:48.855Z,80.47
2017-09-22T09:05:20.455Z,80.86
2017-09-22T09:07:52.518Z,81.02
2017-09-22T09:10:24.297Z,80.90
2017-09-22T09:12:56.916Z,80.91
2017-09-22T09:15:26.128Z,80.32
2017-09-22T09:17:59.518Z,80.29
2017-09-22T09:20:32.104Z,79.69
2017-09-22T09:23:03.927Z,79.65
2017-09-22T09:25:35.216Z,78.88
2017-09-22T09:28:08.577Z,78.78
2017-09-22T09:30:39.677Z,78.03
2017-09-22T09:33:11.468Z,77.33
2017-09-22T09:35:43.899Z,79.92
2017-09-22T09:38:16.113Z,77.44
2017-09-22T09:40:48.560Z,77.79
2017-09-22T09:43:19.832Z,76.58
2017-09-22T09:45:51.850Z,76.81
2017-09-22T09:48:24.311Z,76.65
2017-09-22T09:50:55.965Z,74.67
2017-09-22T09:53:27.827Z,73.31
2017-09-22T09:55:59.683Z,72.89
2017-09-22T09:58:32.614Z,75.74
2017-09-22T10:01:03.777Z,74.30
2017-09-22T10:03:35.665Z,74.99
2017-09-22T10:06:08.050Z,72.74
2017-09-22T10:08:38.068Z,72.61
2017-09-22T10:11:06.415Z,70.34
2017-09-22T10:13:38.074Z,71.15
2017-09-22T10:16:09.823Z,71.65
2017-09-22T10:18:44.993Z,70.09
2017-09-22T10:21:17.589Z,68.29
2017-09-22T10:23:48.415Z,70.18
2017-09-22T10:26:20.563Z,67.93
2017-09-22T10:28:52.702Z,65.46
2017-09-22T10:31:22.687Z,65.59
2017-09-22T10:33:54.369Z,62.50
2017-09-22T10:36:26.195Z,66.69
2017-09-22T10:38:59.052Z,67.00
2017-09-22T10:41:30.536Z,64.29
2017-09-22T10:44:02.732Z,62.04
2017-09-22T10:46:34.344Z,56.23
2017-09-22T10:49:07.754Z,58.59
2017-09-22T10:51:40.045Z,58.23
2017-09-22T10:54:13.111Z,57.72
2017-09-22T10:56:45.064Z,60.26
2017-09-22T10:59:17.511Z,59.56
2017-09-22T11:01:49.311Z,58.87
2017-09-22T11:04:18.430Z,57.11
2017-09-22T11:06:50.107Z,55.26
2017-09-22T11:09:22.086Z,54.76
2017-09-22T11:11:53.916Z,53.85
2017-09-22T11:14:27.410Z,55.26
2017-09-22T11:17:00.740Z,55.83
2017-09-22T11:19:32.940Z,54.26
2017-09-22T11:22:05.781Z,53.60
2017-09-22T11:24:37.680Z,53.50
2017-09-22T11:27:09.333Z,54.16
2017-09-22T11:29:39.437Z,55.28
2017-09-22T11:32:12.609Z,53.84
2017-09-22T11:34:44.990Z,55.11
2017-09-22T11:37:16.169Z,54.41
2017-09-22T11:39:49.065Z,54.26
2017-09-22T11:42:20.455Z,54.56
2017-09-22T11:44:52.822Z,54.41
2017-09-22T11:47:25.366Z,54.88
2017-09-22T11:49:57.522Z,53.49
2017-09-22T11:52:29.274Z,53.71
2017-09-22T11:55:00.894Z,54.21
2017-09-22T11:57:33.481Z,54.07
2017-09-22T12:00:06.067Z,53.47
2017-09-22T12:02:36.312Z,52.22
2017-09-22T12:05:09.128Z,50.32
2017-09-22T12:07:41.273Z,48.20
2017-09-22T12:10:13.741Z,47.10
2017-09-22T12:12:45.322Z,46.01
2017-09-22T12:15:17.117Z,48.07
2017-09-22T12:17:50.104Z,46.06
2017-09-22T12:20:22.935Z,45.03
2017-09-22T12:22:54.737Z,46.35
2017-09-22T12:25:27.333Z,47.55
2017-09-22T12:27:58.707Z,46.44
2017-09-22T12:30:30.428Z,44.39
2017-09-22T12:33:02.349Z,45.72
2017-09-22T12:35:32.104Z,44.39
2017-09-22T12:38:03.750Z,42.69
2017-09-22T12:40:35.598Z,42.47
2017-09-22T12:43:07.226Z,43.01
2017-09-22T12:45:38.761Z,43.72
2017-09-22T12:48:11.066Z,44.87
2017-09-22T12:50:43.759Z,43.75
2017-09-22T12:53:14.516Z,44.45
2017-09-22T12:55:46.024Z,43.22
2017-09-22T12:58:17.878Z,42.40
2017-09-22T13:00:50.832Z,44.02
2017-09-22T13:03:22.367Z,43.99
2017-09-22T13:05:54.331Z,42.67
2017-09-22T13:08:26.175Z,45.60
2017-09-22T13:10:58.542Z,44.57
2017-09-22T13:13:30.320Z,44.46
2017-09-22T13:16:02.930Z,44.82
2017-09-22T13:18:34.846Z,43.69
2017-09-22T13:21:07.016Z,42.40
2017-09-22T13:23:38.839Z,45.25
2017-09-22T13:26:12.491Z,47.24
2017-09-22T13:28:44.301Z,44.27
2017-09-22T13:31:16.186Z,43.04
2017-09-22T13:33:46.786Z,43.01
2017-09-22T13:36:17.944Z,41.85
2017-09-22T13:38:50.234Z,41.89
2017-09-22T13:41:22.127Z,38.66
2017-09-22T13:43:53.961Z,40.77
2017-09-22T13:46:28.285Z,40.48
2017-09-22T13:49:00.745Z,40.30
2017-09-22T13:51:33.758Z,41.59
2017-09-22T13:54:05.765Z,42.05
2017-09-22T13:56:37.507Z,43.13
2017-09-22T13:59:09.424Z,44.21
2017-09-22T14:01:42.211Z,44.08
2017-09-22T14:04:14.774Z,46.38
2017-09-22T14:06:46.540Z,47.08
2017-09-22T14:09:18.254Z,49.19
2017-09-22T14:11:50.342Z,52.19
2017-09-22T14:14:21.495Z,51.09
2017-09-22T14:16:54.020Z,51.72
2017-09-22T14:19:26.356Z,51.07
2017-09-22T14:21:57.670Z,51.52
2017-09-22T14:24:30.303Z,52.78
2017-09-22T14:27:02.871Z,52.06
2017-09-22T14:29:35.496Z,52.39
2017-09-22T14:32:07.674Z,52.43
2017-09-22T14:34:39.489Z,52.60
2017-09-22T14:37:11.992Z,53.38
2017-09-22T14:39:43.710Z,53.13
2017-09-22T14:42:15.778Z,53.37
2017-09-22T14:44:47.334Z,55.03
2017-09-22T14:47:17.981Z,55.22
2017-09-22T14:49:48.184Z,55.84
2017-09-22T14:52:19.281Z,55.74
2017-09-22T14:54:49.132Z,56.20
2017-09-22T14:57:20.025Z,55.46
2017-09-22T14:59:52.860Z,55.91
2017-09-22T15:02:23.587Z,56.68
2017-09-22T15:04:53.717Z,57.38
2017-09-22T15:07:23.385Z,59.12
2017-09-22T15:09:53.777Z,58.69
2017-09-22T15:12:23.511Z,58.29
2017-09-22T15:14:55.355Z,58.15
2017-09-22T15:17:24.790Z,57.98
2017-09-22T15:19:55.891Z,58.10
2017-09-22T15:22:27.772Z,59.55
2017-09-22T15:24:57.933Z,59.41
2017-09-22T15:27:29.608Z,60.18
2017-09-22T15:30:01.493Z,60.42
2017-09-22T15:32:33.369Z,61.12
2017-09-22T15:35:04.740Z,61.85
2017-09-22T15:37:36.723Z,62.34
2017-09-22T15:40:09.165Z,61.93
2017-09-22T15:42:41.024Z,61.33
2017-09-22T15:45:12.969Z,61.96
2017-09-22T15:47:42.801Z,62.62
2017-09-22T15:50:13.735Z,62.52
2017-09-22T15:52:46.291Z,62.56
2017-09-22T15:55:17.707Z,63.07
2017-09-22T15:57:49.511Z,62.86
2017-09-22T16:00:21.181Z,63.36
2017-09-22T16:02:53.347Z,64.32
2017-09-22T16:05:25.843Z,65.30
2017-09-22T16:07:55.201Z,65.57
2017-09-22T16:10:24.664Z,65.56
2017-09-22T16:12:56.022Z,65.31
2017-09-22T16:15:25.197Z,65.69
2017-09-22T16:17:57.835Z,66.90
2017-09-22T16:20:28.149Z,67.23
2017-09-22T16:22:59.189Z,67.03
2017-09-22T16:25:30.464Z,67.54
2017-09-22T16:28:01.458Z,67.32
2017-09-22T16:30:31.793Z,67.70
2017-09-22T16:33:04.286Z,67.80
2017-09-22T16:35:35.290Z,67.66
2017-09-22T16:38:04.683Z,67.68
2017-09-22T16:40:34.408Z,68.31
2017-09-22T16:43:07.014Z,67.69
2017-09-22T16:45:38.728Z,68.87
2017-09-22T16:48:09.644Z,68.80
2017-09-22T16:50:40.242Z,68.83
2017-09-22T16:53:11.898Z,69.02
2017-09-22T16:55:43.255Z,70.20
2017-09-22T16:58:14.229Z,70.50
2017-09-22T17:00:45.333Z,71.53
2017-09-22T17:03:15.996Z,71.92
2017-09-22T17:05:45.672Z,70.93
2017-09-22T17:08:14.561Z,70.23
2017-09-22T17:10:44.315Z,70.38
2017-09-22T17:13:14.891Z,71.50
2017-09-22T17:15:45.987Z,70.79
2017-09-22T17:18:16.896Z,72.02
2017-09-22T17:20:52.402Z,70.66
2017-09-22T17:23:28.224Z,70.97
2017-09-22T17:26:00.157Z,71.28
2017-09-22T17:28:33.696Z,71.77
2017-09-22T17:31:10.055Z,72.51
2017-09-22T17:33:43.756Z,72.65
2017-09-22T17:36:15.061Z,73.43
2017-09-22T17:38:47.088Z,74.05
2017-09-22T17:41:18.463Z,74.45
2017-09-22T17:43:50.170Z,75.08
2017-09-22T17:46:21.705Z,75.17
2017-09-22T17:48:50.231Z,75.67
2017-09-22T17:51:21.433Z,75.11
2017-09-22T17:53:55.064Z,74.93
2017-09-22T17:56:26.228Z,75.12
2017-09-22T17:58:59.525Z,75.74
2017-09-22T18:01:28.970Z,75.88
2017-09-22T18:04:00.084Z,76.76
2017-09-22T18:06:31.711Z,77.19
2017-09-22T18:09:02.594Z,77.23
2017-09-22T18:11:32.764Z,77.65
2017-09-22T18:14:03.110Z,77.55
2017-09-22T18:16:34.748Z,77.85
2017-09-22T18:19:06.506Z,78.61
2017-09-22T18:21:38.191Z,78.54
2017-09-22T18:24:08.645Z,78.34
2017-09-22T18:26:38.464Z,78.26
2017-09-22T18:29:09.881Z,78.55
2017-09-22T18:31:42.156Z,80.61
2017-09-22T18:34:14.676Z,78.67
2017-09-22T18:36:46.355Z,79.38
2017-09-22T18:39:18.941Z,79.48
2017-09-22T18:41:50.746Z,79.19
2017-09-22T18:44:23.916Z,79.15
2017-09-22T18:46:56.951Z,79.41
2017-09-22T18:49:28.842Z,79.97
2017-09-22T18:51:59.265Z,79.80
2017-09-22T18:54:31.219Z,79.88
2017-09-22T18:57:04.053Z,79.63
2017-09-22T18:59:34.373Z,79.81
2017-09-22T19:02:05.823Z,79.64
2017-09-22T19:04:38.982Z,79.54
2017-09-22T19:07:09.624Z,79.21
2017-09-22T19:09:41.367Z,79.46
2017-09-22T19:12:12.702Z,79.45
2017-09-22T19:14:43.908Z,79.60
2017-09-22T19:17:15.997Z,79.60
2017-09-22T19:19:47.936Z,79.72
2017-09-22T19:22:17.914Z,79.77
2017-09-22T19:24:48.765Z,79.77
2017-09-22T19:27:20.114Z,79.83
2017-09-22T19:29:50.485Z,79.85
2017-09-22T19:32:21.624Z,80.11
2017-09-22T19:34:52.590Z,80.55
2017-09-22T19:37:22.241Z,80.63
2017-09-22T19:39:51.795Z,80.88
2017-09-22T19:42:22.832Z,80.93
2017-09-22T19:44:53.973Z,80.95
2017-09-22T19:47:24.325Z,81.27
2017-09-22T19:49:54.267Z,81.40
2017-09-22T19:52:25.308Z,81.44
2017-09-22T19:54:57.998Z,81.37
2017-09-22T19:57:29.252Z,81.36
2017-09-22T19:59:58.636Z,81.36
2017-09-22T20:02:28.944Z,81.18
2017-09-22T20:05:02.322Z,81.08
2017-09-22T20:07:33.639Z,81.33
2017-09-22T20:10:03.863Z,80.87
2017-09-22T20:12:34.458Z,80.74
2017-09-22T20:15:08.308Z,80.76
2017-09-22T20:17:39.347Z,81.19
2017-09-22T20:20:09.982Z,81.44
2017-09-22T20:22:40.611Z,81.35
2017-09-22T20:25:11.829Z,81.58
2017-09-22T20:27:42.225Z,81.83
2017-09-22T20:30:12.444Z,81.69
2017-09-22T20:32:42.262Z,82.50
2017-09-22T20:35:12.083Z,82.47
2017-09-22T20:37:42.985Z,82.64
2017-09-22T20:40:13.714Z,82.72
2017-09-22T20:42:44.434Z,82.18
2017-09-22T20:45:15.058Z,81.98
2017-09-22T20:47:45.281Z,81.81
2017-09-22T20:50:15.443Z,81.69
2017-09-22T20:52:46.060Z,81.61
2017-09-22T20:55:16.279Z,81.37
2017-09-22T20:57:46.798Z,81.42
2017-09-22T21:00:17.647Z,81.32
2017-09-22T21:02:48.165Z,81.31
2017-09-22T21:05:18.718Z,81.87
2017-09-22T21:07:49.241Z,81.63
2017-09-22T21:10:20.270Z,82.16
2017-09-22T21:12:50.975Z,82.93
2017-09-22T21:15:24.063Z,83.05
2017-09-22T21:17:57.561Z,82.64
2017-09-22T21:20:27.982Z,82.89
2017-09-22T21:22:57.991Z,82.21
2017-09-22T21:25:30.164Z,83.16
2017-09-22T21:28:01.655Z,82.92
2017-09-22T21:30:34.212Z,82.95
2017-09-22T21:33:06.604Z,82.91
2017-09-22T21:35:40.317Z,83.19
2017-09-22T21:38:12.145Z,83.14
2017-09-22T21:40:42.648Z,83.04
2017-09-22T21:43:14.597Z,82.95
2017-09-22T21:45:46.733Z,83.10
2017-09-22T21:48:20.980Z,83.38
2017-09-22T21:50:52.429Z,83.18
2017-09-22T21:53:24.404Z,83.00
2017-09-22T21:55:57.023Z,83.32
2017-09-22T21:58:29.057Z,83.25
2017-09-22T22:01:00.900Z,83.07
2017-09-22T22:03:37.578Z,83.16
2017-09-22T22:06:13.998Z,83.15
2017-09-22T22:22:11.398Z,83.90
2017-09-22T22:24:43.304Z,85.19
2017-09-22T22:27:14.808Z,84.90
2017-09-22T22:29:48.226Z,84.82
2017-09-22T22:32:20.294Z,85.00
2017-09-22T22:34:51.456Z,86.01
2017-09-22T22:37:24.276Z,85.76
2017-09-22T22:39:56.793Z,85.47
2017-09-22T22:42:29.301Z,85.16
2017-09-22T22:45:00.890Z,84.99
2017-09-22T22:47:32.269Z,84.75
2017-09-22T22:50:04.990Z,84.84
2017-09-22T22:52:36.100Z,85.14
2017-09-22T22:55:09.560Z,84.96
2017-09-22T22:57:41.184Z,84.82
2017-09-22T23:00:09.876Z,84.86
2017-09-22T23:02:41.868Z,85.09
2017-09-22T23:05:15.087Z,85.69
2017-09-22T23:07:46.998Z,85.81
2017-09-22T23:10:19.052Z,85.97
2017-09-22T23:12:49.734Z,86.13
2017-09-22T23:15:21.641Z,85.77
2017-09-22T23:17:53.088Z,85.80
2017-09-22T23:20:25.128Z,86.08
2017-09-22T23:22:56.850Z,85.57
2017-09-22T23:25:28.171Z,85.21
2017-09-22T23:28:00.035Z,84.89
2017-09-22T23:30:31.878Z,84.77
2017-09-22T23:33:04.486Z,84.74
2017-09-22T23:35:35.996Z,84.61
2017-09-22T23:38:07.530Z,84.60
2017-09-22T23:40:40.002Z,84.54
2017-09-22T23:43:11.251Z,86.46
2017-09-22T23:45:44.532Z,86.13
2017-09-22T23:48:17.001Z,86.23
2017-09-22T23:50:48.680Z,86.42
2017-09-22T23:53:20.062Z,85.99
2017-09-22T23:55:53.271Z,85.98
2017-09-22T23:58:25.466Z,85.42
